METAR Data
IDs: Format: Raw Decoded Include TAF

Data at: 2230 UTC 10 May 2021

KCEZ 102153Z AUTO 29011KT 10SM BKN110 19/M08 A2991 RMK AO2 PK WND 29031/2059 SLP082 T01891078
KCEZ 102053Z AUTO 29010G18KT 250V310 10SM SCT110 20/M06 A2993 RMK AO2 PK WND 29029/2011 SLP079 T02001056 58008
KCEZ 101953Z AUTO 30011G22KT 250V330 10SM BKN110 20/M06 A2994 RMK AO2 PK WND 28027/1936 SLP083 T02001061
KCEZ 101853Z AUTO 27011G18KT 10SM BKN120 19/M06 A2995 RMK AO2 SLP089 T01941056
KCEZ 101753Z AUTO 30017G23KT 10SM CLR 19/M07 A2995 RMK AO2 SLP086 T01941072 10194 20028 58002
KCEZ 101653Z AUTO VRB03KT 10SM CLR 17/M06 A2995 RMK AO2 SLP088 T01721056
KCEZ 101553Z AUTO 00000KT 10SM CLR 16/M05 A2997 RMK AO2 SLP093 T01561050
KCEZ 101453Z AUTO VRB03KT 10SM CLR 14/M06 A2996 RMK AO2 SLP093 T01391056 50009
KCEZ 101353Z AUTO 11005KT 10SM CLR 09/M05 A2996 RMK AO2 SLP095 T00941050
KCEZ 101253Z AUTO 08003KT 10SM CLR 04/M07 A2995 RMK AO2 SLP096 T00391067
KCEZ 101153Z AUTO 09006KT 10SM CLR 03/M06 A2993 RMK AO2 SLP087 T00281061 10100 20017 50001
KCEZ 101053Z AUTO 00000KT 10SM CLR 03/M07 A2994 RMK AO2 SLP090 T00281072
KCEZ 100953Z AUTO 13003KT 10SM CLR 04/M07 A2993 RMK AO2 SLP086 T00441067
KCEZ 100853Z AUTO 00000KT 10SM CLR 07/M07 A2993 RMK AO2 SLP079 T00721072 58009
KCEZ 100753Z AUTO VRB03KT 10SM FEW110 08/M07 A2994 RMK AO2 SLP085 T00781072
KCEZ 100653Z AUTO 10007KT 10SM FEW120 07/M06 A2996 RMK AO2 SLP093 T00721056 402171017
KCEZ 100553Z AUTO 00000KT 10SM CLR 09/M07 A2996 RMK AO2 SLP092 T00891072 10200 20083 52009
KCEZ 100453Z AUTO 15003KT 10SM FEW120 10/M07 A2995 RMK AO2 SLP089 T01001067
KCEZ 100353Z AUTO 03003KT 10SM FEW120 12/M07 A2994 RMK AO2 SLP086 T01221067
KCEZ 100253Z AUTO 08004KT 10SM CLR 13/M08 A2993 RMK AO2 SLP084 T01281083 55002
KCEZ 100153Z AUTO 00000KT 10SM CLR 16/M12 A2992 RMK AO2 SLP085 T01611117
KCEZ 100053Z AUTO 28009G17KT 10SM CLR 18/M12 A2992 RMK AO2 SLP092 T01831117
KCEZ 092353Z AUTO 30013G19KT 10SM CLR 20/M11 A2993 RMK AO2 PK WND 28032/2257 SLP096 T02001111 10217 20172 56013
KCEZ 092253Z AUTO 29014G29KT 10SM CLR 21/M12 A2994 RMK AO2 PK WND 30032/2220 SLP094 T02061117
KCEZ 092153Z AUTO 26019G27KT 10SM CLR 20/M10 A2996 RMK AO2 PK WND 28034/2122 SLP101 T02001100
KCEZ 092053Z AUTO 27015G28KT 10SM CLR 21/M11 A2998 RMK AO2 PK WND 31030/2008 SLP102 T02061111 56016
KCEZ 091953Z AUTO 29013G28KT 10SM CLR 20/M11 A2999 RMK AO2 PK WND 29028/1928 SLP104 T02001111
KCEZ 091853Z AUTO 29017G23KT 10SM CLR 19/M11 A3001 RMK AO2 SLP112 T01941111
KCEZ 091753Z AUTO 29010KT 10SM CLR 18/M12 A3003 RMK AO2 SLP122 T01781122 10178 21017 56006
KCEZ 091653Z AUTO VRB03KT 10SM CLR 15/M12 A3004 RMK AO2 SLP127 T01501117
KCEZ 091553Z AUTO VRB03KT 10SM CLR 13/M13 A3004 RMK AO2 SLP122 T01331128
KCEZ 091453Z AUTO 00000KT 10SM CLR 12/M12 A3005 RMK AO2 SLP127 T01171122 50007
KCEZ 091353Z AUTO 05008KT 10SM CLR 06/M07 A3006 RMK AO2 SLP132 T00561072
KCEZ 091253Z AUTO 06008KT 10SM CLR 01/M10 A3005 RMK AO2 SLP133 T00061100
KCEZ 091153Z AUTO 06007KT 10SM CLR M01/M08 A3003 RMK AO2 SLP130 T10111083 10067 21011 53009
KCEZ 091053Z AUTO 06005KT 10SM CLR 00/M08 A3002 RMK AO2 SLP116 T00001078